DCADL EDLP-EDHK
Flight info
| Callsign | DCADL |
|---|---|
| Flight time | N/A |
| Altitude | 10000 |
| Route | WRB1X WRB N850 ESTAD/N0140F110 DCT HAM/N0140F100 |
| Aircraft | DC3/M-SDF/S |
Departure
| Time | 2026-04-29 17:14 |
|---|---|
| Airport | Paderborn Lippstadt Airport (EDLP) |
Arrival
| Time | N/A |
|---|---|
| Airport | Kiel-Holtenau Airport (EDHK) |
| Time | Latitude | Longitude | Altitude | Speed | Heading |
|---|---|---|---|---|---|
| 2026-04-29 17:02 | 51.61036 | 8.61810 | 731 ft | 0 kts | 147° |
| 2026-04-29 17:05 | 51.61035 | 8.61810 | 731 ft | 0 kts | 146° |
| 2026-04-29 17:05 | 51.61033 | 8.61813 | 731 ft | 0 kts | 144° |
| 2026-04-29 17:06 | 51.61027 | 8.61818 | 731 ft | 0 kts | 154° |
| 2026-04-29 17:06 | 51.61027 | 8.61819 | 731 ft | 0 kts | 154° |
| 2026-04-29 17:08 | 51.61032 | 8.61814 | 731 ft | 4 kts | 155° |
| 2026-04-29 17:08 | 51.61057 | 8.61798 | 731 ft | 4 kts | 162° |
| 2026-04-29 17:09 | 51.61083 | 8.61787 | 731 ft | 4 kts | 172° |
| 2026-04-29 17:09 | 51.61110 | 8.61785 | 731 ft | 4 kts | 190° |
| 2026-04-29 17:09 | 51.61132 | 8.61799 | 731 ft | 3 kts | 234° |
| 2026-04-29 17:09 | 51.61133 | 8.61803 | 731 ft | 0 kts | 239° |
| 2026-04-29 17:11 | 51.61128 | 8.61788 | 731 ft | 5 kts | 239° |
| 2026-04-29 17:11 | 51.61087 | 8.61679 | 731 ft | 16 kts | 238° |
| 2026-04-29 17:11 | 51.61014 | 8.61500 | 731 ft | 14 kts | 228° |
| 2026-04-29 17:12 | 51.60952 | 8.61323 | 731 ft | 21 kts | 279° |
| 2026-04-29 17:12 | 51.60965 | 8.61030 | 722 ft | 31 kts | 231° |
| 2026-04-29 17:12 | 51.60829 | 8.60709 | 715 ft | 36 kts | 236° |
| 2026-04-29 17:12 | 51.60740 | 8.60492 | 713 ft | 30 kts | 237° |
| 2026-04-29 17:13 | 51.60670 | 8.60286 | 712 ft | 12 kts | 258° |
| 2026-04-29 17:13 | 51.60654 | 8.60158 | 716 ft | 14 kts | 261° |
| 2026-04-29 17:13 | 51.60708 | 8.60004 | 715 ft | 20 kts | 345° |
| 2026-04-29 17:13 | 51.60784 | 8.60081 | 718 ft | 10 kts | 54° |
| 2026-04-29 17:14 | 51.60873 | 8.60293 | 718 ft | 45 kts | 60° |
| 2026-04-29 17:14 | 51.61104 | 8.60868 | 815 ft | 66 kts | 57° |
| 2026-04-29 17:14 | 51.61398 | 8.61445 | 1078 ft | 68 kts | 52° |
| 2026-04-29 17:14 | 51.61727 | 8.61992 | 1368 ft | 74 kts | 44° |
| 2026-04-29 17:15 | 51.62180 | 8.62589 | 1560 ft | 89 kts | 60° |
| 2026-04-29 17:15 | 51.62279 | 8.63592 | 1827 ft | 97 kts | 75° |
| 2026-04-29 17:15 | 51.62669 | 8.64543 | 2135 ft | 102 kts | 63° |
| 2026-04-29 17:15 | 51.63033 | 8.65532 | 2431 ft | 104 kts | 64° |
| 2026-04-29 17:16 | 51.63436 | 8.66532 | 2738 ft | 109 kts | 63° |
| 2026-04-29 17:16 | 51.63854 | 8.67567 | 3059 ft | 113 kts | 61° |
| 2026-04-29 17:16 | 51.64198 | 8.68699 | 3366 ft | 113 kts | 81° |
| 2026-04-29 17:16 | 51.64305 | 8.69963 | 3684 ft | 114 kts | 81° |
| 2026-04-29 17:17 | 51.64471 | 8.71212 | 4004 ft | 114 kts | 81° |
| 2026-04-29 17:17 | 51.64865 | 8.72337 | 4308 ft | 123 kts | 49° |
| 2026-04-29 17:17 | 51.65463 | 8.73331 | 4625 ft | 124 kts | 53° |
| 2026-04-29 17:17 | 51.66009 | 8.74406 | 4959 ft | 124 kts | 54° |
| 2026-04-29 17:18 | 51.66551 | 8.75467 | 5274 ft | 126 kts | 54° |
| 2026-04-29 17:18 | 51.67106 | 8.76560 | 5579 ft | 126 kts | 54° |
| 2026-04-29 17:18 | 51.67665 | 8.77662 | 5884 ft | 128 kts | 54° |
| 2026-04-29 17:18 | 51.68236 | 8.78796 | 6152 ft | 132 kts | 53° |
| 2026-04-29 17:19 | 51.68815 | 8.79937 | 6423 ft | 131 kts | 54° |
| 2026-04-29 17:19 | 51.69391 | 8.81079 | 6698 ft | 132 kts | 53° |
| 2026-04-29 17:19 | 51.69973 | 8.82229 | 6954 ft | 132 kts | 53° |
| 2026-04-29 17:19 | 51.70553 | 8.83380 | 7201 ft | 133 kts | 53° |
| 2026-04-29 17:20 | 51.71131 | 8.84527 | 7455 ft | 131 kts | 53° |
| 2026-04-29 17:20 | 51.71706 | 8.85658 | 7696 ft | 130 kts | 53° |
| 2026-04-29 17:20 | 51.72277 | 8.86796 | 7945 ft | 129 kts | 53° |
| 2026-04-29 17:20 | 51.72844 | 8.87921 | 8184 ft | 128 kts | 52° |
| 2026-04-29 17:21 | 51.73403 | 8.89032 | 8432 ft | 127 kts | 52° |
| 2026-04-29 17:21 | 51.73956 | 8.90128 | 8672 ft | 128 kts | 52° |
| 2026-04-29 17:21 | 51.74513 | 8.91235 | 8932 ft | 126 kts | 52° |
| 2026-04-29 17:21 | 51.75068 | 8.92338 | 9170 ft | 126 kts | 52° |
| 2026-04-29 17:22 | 51.75620 | 8.93435 | 9420 ft | 125 kts | 51° |
| 2026-04-29 17:22 | 51.76167 | 8.94524 | 9671 ft | 125 kts | 52° |
| 2026-04-29 17:22 | 51.76710 | 8.95603 | 9917 ft | 123 kts | 51° |
| 2026-04-29 17:22 | 51.77264 | 8.96708 | 10000 ft | 133 kts | 51° |
| 2026-04-29 17:23 | 51.77868 | 8.97911 | 10025 ft | 143 kts | 51° |
| 2026-04-29 17:23 | 51.78519 | 8.99212 | 10032 ft | 153 kts | 51° |
| 2026-04-29 17:23 | 51.79206 | 9.00571 | 10037 ft | 159 kts | 51° |
| 2026-04-29 17:23 | 51.79908 | 9.01979 | 10043 ft | 163 kts | 51° |
| 2026-04-29 17:24 | 51.80628 | 9.03416 | 10052 ft | 165 kts | 51° |
| 2026-04-29 17:24 | 51.81351 | 9.04857 | 10044 ft | 168 kts | 51° |
| 2026-04-29 17:24 | 51.82088 | 9.06328 | 10044 ft | 169 kts | 51° |
| 2026-04-29 17:24 | 51.82830 | 9.07817 | 10044 ft | 170 kts | 51° |
| 2026-04-29 17:25 | 51.83578 | 9.09308 | 10039 ft | 171 kts | 51° |
| 2026-04-29 17:25 | 51.84327 | 9.10811 | 10042 ft | 171 kts | 51° |
| 2026-04-29 17:25 | 51.85079 | 9.12311 | 10037 ft | 172 kts | 51° |
| 2026-04-29 17:25 | 51.85827 | 9.13817 | 10040 ft | 171 kts | 51° |
| 2026-04-29 17:26 | 51.86579 | 9.15323 | 10033 ft | 172 kts | 51° |
| 2026-04-29 17:26 | 51.87334 | 9.16828 | 10034 ft | 172 kts | 51° |
| 2026-04-29 17:26 | 51.88085 | 9.18340 | 10033 ft | 172 kts | 51° |
| 2026-04-29 17:26 | 51.89038 | 9.19503 | 10014 ft | 179 kts | 22° |
| 2026-04-29 17:27 | 51.90295 | 9.19731 | 10029 ft | 182 kts | 9° |
| 2026-04-29 17:27 | 51.91538 | 9.20023 | 10037 ft | 179 kts | 15° |
| 2026-04-29 17:27 | 51.92747 | 9.20395 | 10035 ft | 180 kts | 14° |
| 2026-04-29 17:27 | 51.93981 | 9.20710 | 10037 ft | 179 kts | 13° |
| 2026-04-29 17:28 | 51.95215 | 9.21031 | 10040 ft | 179 kts | 14° |
| 2026-04-29 17:28 | 51.96450 | 9.21355 | 10038 ft | 179 kts | 13° |
| 2026-04-29 17:28 | 51.97680 | 9.21673 | 10039 ft | 180 kts | 14° |
| 2026-04-29 17:28 | 51.98914 | 9.22006 | 10037 ft | 180 kts | 14° |
| 2026-04-29 17:29 | 52.00151 | 9.22320 | 10040 ft | 179 kts | 14° |
| 2026-04-29 17:29 | 52.01366 | 9.22641 | 10038 ft | 179 kts | 14° |
| 2026-04-29 17:29 | 52.02598 | 9.22965 | 10041 ft | 179 kts | 14° |
| 2026-04-29 17:29 | 52.03412 | 9.23174 | 10046 ft | 179 kts | 14° |
| 2026-04-29 17:30 | 52.05057 | 9.23610 | 10042 ft | 179 kts | 14° |
| 2026-04-29 17:30 | 52.06276 | 9.23857 | 10040 ft | 178 kts | 15° |
| 2026-04-29 17:30 | 52.07436 | 9.24514 | 10023 ft | 178 kts | 19° |
| 2026-04-29 17:30 | 52.08688 | 9.24488 | 10034 ft | 183 kts | 358° |
| 2026-04-29 17:31 | 52.09945 | 9.24442 | 10029 ft | 179 kts | 10° |
| 2026-04-29 17:31 | 52.11176 | 9.24730 | 10033 ft | 179 kts | 13° |
| 2026-04-29 17:31 | 52.12415 | 9.24974 | 10037 ft | 180 kts | 11° |
| 2026-04-29 17:31 | 52.13025 | 9.25073 | 10040 ft | 180 kts | 11° |
| 2026-04-29 17:32 | 52.13884 | 9.25220 | 10042 ft | 179 kts | 11° |
| 2026-04-29 17:32 | 52.15122 | 9.25458 | 10044 ft | 179 kts | 12° |
| 2026-04-29 17:33 | 52.16361 | 9.25680 | 10041 ft | 179 kts | 11° |
| 2026-04-29 17:33 | 52.17595 | 9.25905 | 10045 ft | 178 kts | 12° |
| 2026-04-29 17:33 | 52.18822 | 9.26131 | 10047 ft | 177 kts | 11° |
| 2026-04-29 17:33 | 52.20047 | 9.26351 | 10044 ft | 177 kts | 12° |
| 2026-04-29 17:34 | 52.21269 | 9.26577 | 10047 ft | 176 kts | 11° |
| 2026-04-29 17:34 | 52.22490 | 9.26795 | 10047 ft | 177 kts | 11° |
| 2026-04-29 17:34 | 52.23706 | 9.27041 | 10044 ft | 176 kts | 15° |
| 2026-04-29 17:34 | 52.24502 | 9.27285 | 10044 ft | 176 kts | 15° |
| 2026-04-29 17:35 | 52.26521 | 9.27776 | 10044 ft | 177 kts | 13° |
| 2026-04-29 17:35 | 52.28538 | 9.28309 | 10050 ft | 177 kts | 14° |
| 2026-04-29 17:35 | 52.29756 | 9.28622 | 10050 ft | 177 kts | 14° |
| 2026-04-29 17:36 | 52.30580 | 9.28841 | 10051 ft | 177 kts | 14° |
| 2026-04-29 17:36 | 52.31780 | 9.29155 | 10049 ft | 177 kts | 14° |
| 2026-04-29 17:36 | 52.32993 | 9.29468 | 10045 ft | 176 kts | 14° |
| 2026-04-29 17:36 | 52.34218 | 9.29782 | 10046 ft | 176 kts | 14° |
| 2026-04-29 17:37 | 52.35427 | 9.30109 | 10045 ft | 176 kts | 14° |
| 2026-04-29 17:37 | 52.36622 | 9.30421 | 10044 ft | 176 kts | 14° |
| 2026-04-29 17:37 | 52.37836 | 9.30734 | 10042 ft | 176 kts | 14° |
| 2026-04-29 17:37 | 52.39048 | 9.31053 | 10043 ft | 176 kts | 14° |
| 2026-04-29 17:38 | 52.40259 | 9.31364 | 10040 ft | 176 kts | 14° |
| 2026-04-29 17:38 | 52.41469 | 9.31682 | 10042 ft | 176 kts | 14° |
| 2026-04-29 17:38 | 52.42679 | 9.31998 | 10043 ft | 176 kts | 14° |
| 2026-04-29 17:38 | 52.43889 | 9.32311 | 10043 ft | 176 kts | 14° |
| 2026-04-29 17:39 | 52.45097 | 9.32631 | 10040 ft | 176 kts | 14° |
| 2026-04-29 17:39 | 52.46305 | 9.32941 | 10040 ft | 176 kts | 14° |
| 2026-04-29 17:39 | 52.47513 | 9.33257 | 10040 ft | 176 kts | 14° |
| 2026-04-29 17:39 | 52.48721 | 9.33578 | 10038 ft | 176 kts | 14° |
| 2026-04-29 17:40 | 52.49930 | 9.33889 | 10040 ft | 176 kts | 14° |
| 2026-04-29 17:40 | 52.51135 | 9.34207 | 10038 ft | 175 kts | 14° |
| 2026-04-29 17:40 | 52.52340 | 9.34524 | 10038 ft | 176 kts | 14° |
| 2026-04-29 17:40 | 52.53547 | 9.34837 | 10040 ft | 176 kts | 14° |
| 2026-04-29 17:41 | 52.54755 | 9.35156 | 10039 ft | 176 kts | 14° |
| 2026-04-29 17:41 | 52.55966 | 9.35476 | 10038 ft | 176 kts | 14° |
| 2026-04-29 17:41 | 52.57178 | 9.35790 | 10038 ft | 176 kts | 14° |
| 2026-04-29 17:41 | 52.58388 | 9.36108 | 10038 ft | 176 kts | 14° |
| 2026-04-29 17:42 | 52.59596 | 9.36427 | 10045 ft | 176 kts | 14° |
| 2026-04-29 17:42 | 52.60789 | 9.36740 | 10046 ft | 176 kts | 14° |
| 2026-04-29 17:42 | 52.61996 | 9.37056 | 10047 ft | 176 kts | 14° |
| 2026-04-29 17:42 | 52.63211 | 9.37326 | 10048 ft | 177 kts | 10° |
| 2026-04-29 17:43 | 52.64430 | 9.37570 | 10036 ft | 176 kts | 13° |
| 2026-04-29 17:43 | 52.65643 | 9.37864 | 10040 ft | 177 kts | 12° |
| 2026-04-29 17:43 | 52.66863 | 9.38115 | 10040 ft | 177 kts | 12° |
| 2026-04-29 17:43 | 52.68083 | 9.38374 | 10040 ft | 176 kts | 12° |
| 2026-04-29 17:44 | 52.69299 | 9.38631 | 10043 ft | 176 kts | 12° |
| 2026-04-29 17:44 | 52.70515 | 9.38886 | 10044 ft | 176 kts | 12° |
| 2026-04-29 17:44 | 52.71730 | 9.39148 | 10045 ft | 176 kts | 12° |
| 2026-04-29 17:44 | 52.72948 | 9.39402 | 10048 ft | 176 kts | 11° |
| 2026-04-29 17:45 | 52.74166 | 9.39633 | 10054 ft | 176 kts | 12° |
| 2026-04-29 17:45 | 52.75376 | 9.39912 | 10053 ft | 176 kts | 13° |
| 2026-04-29 17:45 | 52.76589 | 9.40169 | 10054 ft | 176 kts | 12° |
| 2026-04-29 17:45 | 52.77804 | 9.40426 | 10052 ft | 176 kts | 12° |
| 2026-04-29 17:46 | 52.79002 | 9.40684 | 10061 ft | 176 kts | 12° |
| 2026-04-29 17:46 | 52.80220 | 9.40937 | 10057 ft | 176 kts | 12° |
| 2026-04-29 17:46 | 52.81433 | 9.41206 | 10055 ft | 176 kts | 12° |
| 2026-04-29 17:46 | 52.82649 | 9.41462 | 10055 ft | 176 kts | 12° |
| 2026-04-29 17:47 | 52.83862 | 9.41723 | 10048 ft | 176 kts | 12° |
| 2026-04-29 17:47 | 52.85078 | 9.41961 | 10051 ft | 176 kts | 11° |
| 2026-04-29 17:47 | 52.86289 | 9.42229 | 10050 ft | 175 kts | 13° |
| 2026-04-29 17:47 | 52.87500 | 9.42506 | 10047 ft | 176 kts | 12° |
| 2026-04-29 17:48 | 52.88712 | 9.42734 | 10082 ft | 174 kts | 11° |
| 2026-04-29 17:48 | 52.89906 | 9.42984 | 10085 ft | 174 kts | 13° |
| 2026-04-29 17:48 | 52.91105 | 9.43230 | 10014 ft | 178 kts | 12° |
| 2026-04-29 17:48 | 52.92324 | 9.43514 | 10090 ft | 172 kts | 13° |
| 2026-04-29 17:49 | 52.93485 | 9.43779 | 10262 ft | 165 kts | 12° |
| 2026-04-29 17:49 | 52.94606 | 9.44014 | 10393 ft | 160 kts | 13° |
| 2026-04-29 17:49 | 52.95726 | 9.44264 | 10422 ft | 167 kts | 13° |
| 2026-04-29 17:49 | 52.96912 | 9.44513 | 10427 ft | 176 kts | 12° |
| 2026-04-29 17:50 | 52.98144 | 9.44780 | 10448 ft | 181 kts | 12° |
| 2026-04-29 17:50 | 52.99411 | 9.45049 | 10447 ft | 186 kts | 12° |
| 2026-04-29 17:50 | 53.00704 | 9.45323 | 10449 ft | 189 kts | 12° |
| 2026-04-29 17:50 | 53.02014 | 9.45604 | 10450 ft | 191 kts | 12° |
| 2026-04-29 17:51 | 53.03336 | 9.45880 | 10447 ft | 192 kts | 12° |
| 2026-04-29 17:51 | 53.04664 | 9.46167 | 10446 ft | 193 kts | 12° |
| 2026-04-29 17:51 | 53.05995 | 9.46450 | 10445 ft | 193 kts | 12° |
| 2026-04-29 17:51 | 53.07314 | 9.46726 | 10449 ft | 193 kts | 12° |
| 2026-04-29 17:52 | 53.08649 | 9.47016 | 10454 ft | 194 kts | 12° |
| 2026-04-29 17:52 | 53.09554 | 9.47208 | 10453 ft | 194 kts | 12° |
| 2026-04-29 17:52 | 53.11328 | 9.47584 | 10450 ft | 194 kts | 12° |
| 2026-04-29 17:52 | 53.12667 | 9.47873 | 10450 ft | 194 kts | 12° |
| 2026-04-29 17:53 | 53.14006 | 9.48153 | 10449 ft | 194 kts | 12° |
| 2026-04-29 17:53 | 53.15344 | 9.48445 | 10449 ft | 194 kts | 12° |
| 2026-04-29 17:53 | 53.16683 | 9.48729 | 10446 ft | 194 kts | 12° |
| 2026-04-29 17:53 | 53.18023 | 9.49014 | 10455 ft | 194 kts | 12° |
| 2026-04-29 17:54 | 53.19367 | 9.49308 | 10453 ft | 194 kts | 12° |
| 2026-04-29 17:54 | 53.20710 | 9.49588 | 10454 ft | 194 kts | 12° |
| 2026-04-29 17:54 | 53.22054 | 9.49879 | 10451 ft | 195 kts | 12° |
| 2026-04-29 17:54 | 53.23382 | 9.50156 | 10453 ft | 194 kts | 11° |
| 2026-04-29 17:55 | 53.24699 | 9.50579 | 10433 ft | 192 kts | 25° |
| 2026-04-29 17:55 | 53.25908 | 9.51209 | 10696 ft | 183 kts | 9° |
| 2026-04-29 17:55 | 53.27270 | 9.50906 | 10387 ft | 206 kts | 351° |
| 2026-04-29 17:55 | 53.28614 | 9.49983 | 10218 ft | 207 kts | 344° |